Pumpkin Bend, Arkansas
Current Conditions -  °F | °C
As of 7:12 AM on Thursday 18 Dec 2014 (Local Time) from KM19 Reporting Station
Haze Haze  
Wind Chill: 34°   Ceiling: 3900
Heat Index: 37°   Visibility: 4mi
Dew Point: 36°   Wind: 5mph
Humidity: 93%   Direction: 60°ENE
Pressure: 30.27"   Gusts: NA
Location:  35.2139°N, 91.1509°W
Report Text: KM19 181312Z AUTO 06004KT 4SM BR FEW006 OVC039 03/02 A3027 RMK AO2 RAB1258E05 P0000
Loading
Personal Weather Stations






























Interactive Weather Map New forecast layout! Learn more

10-Day Weather Forecast

Advertisements
Track Severe Weather on mobile